Time;durP1;ratioP1;P1;durP2;ratioP2;P2;SDS_P1;SDS_P2;PMS_P1;PMS_P2;Temp;Humidity;BMP_temperature;BMP_pressure;BME280_temperature;BME280_humidity;BME280_pressure;Samples;Min_cycle;Max_cycle;Signal;HPM_P1;HPM_P2
2023/09/23 00:00:23;;;;;;;0.00;0.00;;;13.60;99.90;;;;;;4953153;28;20041;-66
2023/09/23 00:02:49;;;;;;;0.10;0.10;;;13.50;99.90;;;;;;4951977;28;20090;-66
2023/09/23 00:05:16;;;;;;;0.10;0.10;;;13.50;99.90;;;;;;4953403;29;20085;-66
2023/09/23 00:07:43;;;;;;;0.10;0.10;;;13.50;99.90;;;;;;4950965;29;20058;-66
2023/09/23 00:10:10;;;;;;;0.00;0.00;;;13.50;99.90;;;;;;4952162;29;20494;-66
2023/09/23 00:12:40;;;;;;;0.00;0.00;;;13.50;99.90;;;;;;4950488;29;20043;-67
2023/09/23 00:15:07;;;;;;;0.00;0.00;;;13.50;99.90;;;;;;4951277;29;20702;-66
2023/09/23 00:17:33;;;;;;;0.00;0.00;;;13.50;99.90;;;;;;4951489;29;20504;-66
2023/09/23 00:20:00;;;;;;;0.35;0.35;;;13.50;99.90;;;;;;4953105;28;20043;-66
2023/09/23 00:22:25;;;;;;;0.00;0.00;;;13.50;99.90;;;;;;4952924;28;20051;-66
2023/09/23 00:24:52;;;;;;;0.00;0.00;;;13.50;99.90;;;;;;4951455;29;20054;-66
2023/09/23 00:27:18;;;;;;;0.00;0.00;;;13.50;99.90;;;;;;4952127;29;20051;-66
2023/09/23 00:29:44;;;;;;;0.73;0.63;;;13.50;99.90;;;;;;4952521;29;20043;-66
2023/09/23 00:32:12;;;;;;;0.00;0.00;;;13.50;99.90;;;;;;4951445;28;20069;-66
2023/09/23 00:34:38;;;;;;;0.75;0.75;;;13.50;99.90;;;;;;4951592;29;20044;-66
2023/09/23 00:37:04;;;;;;;0.00;0.00;;;13.50;99.90;;;;;;4951195;29;20138;-66
2023/09/23 00:39:30;;;;;;;0.10;0.10;;;13.50;99.90;;;;;;4952923;28;20126;-66
2023/09/23 00:41:55;;;;;;;0.00;0.00;;;13.50;99.90;;;;;;4955615;29;20039;-66
2023/09/23 00:44:21;;;;;;;0.00;0.00;;;13.50;99.90;;;;;;4956431;29;20102;-66
2023/09/23 00:46:46;;;;;;;0.00;0.00;;;13.50;99.90;;;;;;4963196;28;20510;-66
2023/09/23 00:49:13;;;;;;;0.20;0.20;;;13.50;99.90;;;;;;4973510;28;20058;-66
2023/09/23 00:51:39;;;;;;;0.10;0.10;;;13.50;99.90;;;;;;4976087;28;20050;-66
2023/09/23 00:54:06;;;;;;;0.00;0.00;;;13.50;99.90;;;;;;4974588;28;20501;-66
2023/09/23 00:56:36;;;;;;;2.45;1.10;;;13.50;99.90;;;;;;4975019;28;20065;-66
2023/09/23 00:59:06;;;;;;;0.00;0.00;;;13.50;99.90;;;;;;4974256;28;20041;-66
2023/09/23 01:01:31;;;;;;;0.05;0.05;;;13.40;99.90;;;;;;4976428;28;20398;-66
2023/09/23 01:03:57;;;;;;;0.00;0.00;;;13.40;99.90;;;;;;4973732;28;20054;-66
2023/09/23 01:06:27;;;;;;;0.03;0.03;;;13.40;99.90;;;;;;4975358;28;20035;-66
2023/09/23 01:08:54;;;;;;;0.00;0.00;;;13.40;99.90;;;;;;4975975;28;20051;-66
2023/09/23 01:11:21;;;;;;;0.08;0.08;;;13.40;99.90;;;;;;4973500;28;20074;-66
2023/09/23 01:13:50;;;;;;;0.00;0.00;;;13.40;99.90;;;;;;4975915;28;20043;-66
2023/09/23 01:16:17;;;;;;;0.00;0.00;;;13.30;99.90;;;;;;4974099;28;20062;-66
2023/09/23 01:18:49;;;;;;;0.00;0.00;;;13.30;99.90;;;;;;4974951;28;20050;-66
2023/09/23 01:21:14;;;;;;;0.00;0.00;;;13.20;99.90;;;;;;4973788;28;20054;-66
2023/09/23 01:23:43;;;;;;;0.00;0.00;;;13.20;99.90;;;;;;4975875;28;20042;-66
2023/09/23 01:26:11;;;;;;;0.00;0.00;;;13.20;99.90;;;;;;4955787;28;20039;-66
2023/09/23 01:28:37;;;;;;;0.10;0.10;;;13.20;99.90;;;;;;4974485;28;20038;-66
2023/09/23 01:31:05;;;;;;;0.00;0.00;;;13.20;99.90;;;;;;4957304;28;20046;-66
2023/09/23 01:33:32;;;;;;;0.10;0.10;;;13.10;99.90;;;;;;4974997;28;20055;-66
2023/09/23 01:36:02;;;;;;;0.00;0.00;;;13.10;99.90;;;;;;4956622;28;20054;-66
2023/09/23 01:38:29;;;;;;;0.00;0.00;;;13.10;99.90;;;;;;4974113;28;20375;-66
2023/09/23 01:40:55;;;;;;;0.08;0.08;;;13.10;99.90;;;;;;4973320;28;20046;-66
2023/09/23 01:43:20;;;;;;;0.05;0.05;;;13.10;99.90;;;;;;4975432;28;20038;-66
2023/09/23 01:45:46;;;;;;;0.00;0.00;;;13.00;99.90;;;;;;4973053;28;20067;-66
2023/09/23 01:48:12;;;;;;;0.05;0.05;;;13.00;99.90;;;;;;4970248;28;20047;-66
2023/09/23 01:50:37;;;;;;;0.00;0.00;;;13.00;99.90;;;;;;4973839;28;20097;-66
2023/09/23 01:53:04;;;;;;;0.00;0.00;;;12.90;99.90;;;;;;4956830;28;20049;-66
2023/09/23 01:55:29;;;;;;;0.77;0.65;;;12.90;99.90;;;;;;4973357;28;20082;-66
2023/09/23 01:57:56;;;;;;;0.00;0.00;;;12.90;99.90;;;;;;4975046;28;20078;-66
2023/09/23 02:00:25;;;;;;;0.20;0.20;;;12.90;99.90;;;;;;4972337;28;20054;-66
2023/09/23 02:02:55;;;;;;;0.28;0.28;;;12.90;99.90;;;;;;4957827;28;20089;-67
2023/09/23 02:05:23;;;;;;;0.05;0.05;;;12.80;99.90;;;;;;4975099;28;20158;-67
2023/09/23 02:07:50;;;;;;;0.10;0.10;;;12.90;99.90;;;;;;4974360;28;20082;-66
2023/09/23 02:10:17;;;;;;;0.10;0.10;;;12.90;99.90;;;;;;4972992;28;20490;-66
2023/09/23 02:12:43;;;;;;;0.00;0.00;;;12.80;99.90;;;;;;4974858;28;20124;-66
2023/09/23 02:15:10;;;;;;;0.00;0.00;;;12.90;99.90;;;;;;4951557;28;20050;-66
2023/09/23 02:17:36;;;;;;;0.03;0.03;;;12.80;99.90;;;;;;4974536;28;20375;-66
2023/09/23 02:20:22;;;;;;;0.00;0.00;;;12.80;99.90;;;;;;4974573;28;20045;-66
2023/09/23 02:22:50;;;;;;;0.00;0.00;;;12.80;99.90;;;;;;4972275;28;20101;-66
2023/09/23 02:25:16;;;;;;;0.00;0.00;;;12.80;99.90;;;;;;4974500;28;20108;-66
2023/09/23 02:27:44;;;;;;;0.20;0.20;;;12.70;99.90;;;;;;4973903;28;20066;-66
2023/09/23 02:30:11;;;;;;;0.00;0.00;;;12.70;99.90;;;;;;4955692;28;20055;-66
2023/09/23 02:32:40;;;;;;;0.10;0.10;;;12.70;99.90;;;;;;4974183;28;20074;-66
2023/09/23 02:35:10;;;;;;;0.80;0.80;;;12.60;99.90;;;;;;4973917;28;20062;-66
2023/09/23 02:37:37;;;;;;;0.10;0.10;;;12.60;99.90;;;;;;4956240;28;20047;-66
2023/09/23 02:40:05;;;;;;;0.00;0.00;;;12.60;99.90;;;;;;4956992;28;20042;-66
2023/09/23 02:42:31;;;;;;;0.00;0.00;;;12.60;99.90;;;;;;4956293;28;20529;-66
2023/09/23 02:44:57;;;;;;;0.00;0.00;;;12.60;99.90;;;;;;4972400;28;20074;-66
2023/09/23 02:47:22;;;;;;;0.10;0.10;;;12.50;99.90;;;;;;4973669;28;20081;-66
2023/09/23 02:49:48;;;;;;;0.00;0.00;;;12.50;99.90;;;;;;4973471;28;20085;-66
2023/09/23 02:52:14;;;;;;;0.10;0.10;;;12.40;99.90;;;;;;4972200;28;20039;-66
2023/09/23 02:54:40;;;;;;;0.10;0.10;;;12.50;99.90;;;;;;4973931;28;20046;-66
2023/09/23 02:57:08;;;;;;;0.20;0.20;;;12.40;99.90;;;;;;4971271;28;20049;-66
2023/09/23 02:59:41;;;;;;;0.00;0.00;;;12.40;99.90;;;;;;4956535;28;20042;-66
2023/09/23 03:02:07;;;;;;;0.10;0.10;;;12.40;99.90;;;;;;4972140;28;20054;-66
2023/09/23 03:04:34;;;;;;;4.65;3.92;;;12.40;99.90;;;;;;4972916;28;20089;-66
2023/09/23 03:07:04;;;;;;;0.30;0.30;;;12.40;99.90;;;;;;4963905;28;20487;-66
2023/09/23 03:09:32;;;;;;;0.10;0.10;;;12.40;99.90;;;;;;4973968;28;20057;-66
2023/09/23 03:12:00;;;;;;;0.10;0.10;;;12.40;99.90;;;;;;4973150;28;20050;-66
2023/09/23 03:14:38;;;;;;;0.10;0.10;;;12.40;99.90;;;;;;4971829;28;20133;-66
2023/09/23 03:17:04;;;;;;;0.00;0.00;;;12.40;99.90;;;;;;4971237;28;20054;-66
2023/09/23 03:19:32;;;;;;;0.00;0.00;;;12.40;99.90;;;;;;4973785;28;20035;-66
2023/09/23 03:21:59;;;;;;;0.45;0.30;;;12.30;99.90;;;;;;4954185;28;20059;-66
2023/09/23 03:24:25;;;;;;;0.20;0.20;;;12.30;99.90;;;;;;4955856;28;20433;-66
2023/09/23 03:26:56;;;;;;;0.40;0.40;;;12.30;99.90;;;;;;4955866;28;20046;-66
2023/09/23 03:29:22;;;;;;;0.03;0.03;;;12.30;99.90;;;;;;4972003;28;20406;-65
2023/09/23 03:31:49;;;;;;;0.20;0.20;;;12.40;99.90;;;;;;4971612;28;20045;-65
2023/09/23 03:34:15;;;;;;;0.00;0.00;;;12.40;99.90;;;;;;4972972;28;20169;-66
2023/09/23 03:36:41;;;;;;;0.00;0.00;;;12.40;99.90;;;;;;4954052;28;20049;-66
2023/09/23 03:39:08;;;;;;;0.00;0.00;;;12.40;99.90;;;;;;4972295;28;20050;-66
2023/09/23 03:41:37;;;;;;;0.10;0.10;;;12.30;99.90;;;;;;4963452;28;20101;-66
2023/09/23 03:44:03;;;;;;;0.00;0.00;;;12.40;99.90;;;;;;4954248;28;20042;-65
2023/09/23 03:46:29;;;;;;;0.10;0.10;;;12.40;99.90;;;;;;4971871;28;20415;-66
2023/09/23 03:48:55;;;;;;;0.40;0.40;;;12.40;99.90;;;;;;4971749;28;20057;-66
2023/09/23 03:51:20;;;;;;;2.88;2.70;;;12.40;99.90;;;;;;4972902;28;20054;-66
2023/09/23 03:53:51;;;;;;;0.08;0.08;;;12.50;99.90;;;;;;4956357;28;20047;-66
2023/09/23 03:56:17;;;;;;;0.10;0.10;;;12.50;99.90;;;;;;4973360;28;20055;-66
2023/09/23 03:58:43;;;;;;;0.10;0.10;;;12.50;99.90;;;;;;4953775;28;20062;-65
2023/09/23 04:01:13;;;;;;;0.13;0.13;;;12.50;99.90;;;;;;4972413;28;20085;-66
2023/09/23 04:03:42;;;;;;;0.00;0.00;;;12.50;99.90;;;;;;4973148;28;20444;-66
2023/09/23 04:06:07;;;;;;;0.03;0.03;;;12.50;99.90;;;;;;4970552;28;20425;-66
2023/09/23 04:08:33;;;;;;;0.10;0.10;;;12.50;99.90;;;;;;4972684;28;20125;-66
2023/09/23 04:11:05;;;;;;;0.10;0.10;;;12.50;99.90;;;;;;4953713;28;20070;-66
2023/09/23 04:13:31;;;;;;;0.10;0.10;;;12.50;99.90;;;;;;4971656;28;20109;-66
2023/09/23 04:16:00;;;;;;;0.20;0.20;;;12.40;99.90;;;;;;4972683;28;20043;-66
2023/09/23 04:18:26;;;;;;;0.10;0.10;;;12.40;99.90;;;;;;4970981;28;20570;-65
2023/09/23 04:20:53;;;;;;;0.00;0.00;;;12.40;99.90;;;;;;4954925;28;20042;-66
2023/09/23 04:23:19;;;;;;;0.00;0.00;;;12.40;99.90;;;;;;4972519;28;20051;-66
2023/09/23 04:25:45;;;;;;;0.00;0.00;;;12.40;99.90;;;;;;4972686;28;20093;-66
2023/09/23 04:28:10;;;;;;;0.10;0.10;;;12.40;99.90;;;;;;4970016;28;20039;-66
2023/09/23 04:30:36;;;;;;;0.10;0.10;;;12.40;99.90;;;;;;4972612;28;20046;-66
2023/09/23 04:33:02;;;;;;;0.10;0.10;;;12.40;99.90;;;;;;4971454;28;20386;-66
2023/09/23 04:35:31;;;;;;;0.00;0.00;;;12.40;99.90;;;;;;4971965;28;20038;-66
2023/09/23 04:37:56;;;;;;;0.10;0.10;;;12.30;99.90;;;;;;4953553;28;20051;-66
2023/09/23 04:40:22;;;;;;;0.00;0.00;;;12.30;99.90;;;;;;4954887;28;20050;-66
2023/09/23 04:42:48;;;;;;;0.00;0.00;;;12.30;99.90;;;;;;4972036;28;20043;-66
2023/09/23 04:45:14;;;;;;;0.65;0.65;;;12.30;99.90;;;;;;4970841;28;20100;-66
2023/09/23 04:47:40;;;;;;;0.10;0.10;;;12.30;99.90;;;;;;4972232;28;20503;-66
2023/09/23 04:50:09;;;;;;;0.00;0.00;;;12.30;99.90;;;;;;4970302;28;20102;-66
2023/09/23 04:52:35;;;;;;;0.40;0.40;;;12.30;99.90;;;;;;4972432;28;20106;-66
2023/09/23 04:55:02;;;;;;;0.00;0.00;;;12.30;99.90;;;;;;4972425;28;20043;-66
2023/09/23 04:57:27;;;;;;;0.10;0.10;;;12.30;99.90;;;;;;4978424;28;20050;-66
2023/09/23 04:59:54;;;;;;;0.00;0.00;;;12.30;99.90;;;;;;4970781;28;20050;-66
2023/09/23 05:02:20;;;;;;;0.10;0.10;;;12.30;99.90;;;;;;4970624;28;20062;-65
2023/09/23 05:04:46;;;;;;;0.10;0.10;;;12.30;99.90;;;;;;4954463;28;20483;-65
2023/09/23 05:07:15;;;;;;;0.10;0.10;;;12.30;99.90;;;;;;4970619;28;20043;-66
2023/09/23 05:09:41;;;;;;;0.00;0.00;;;12.30;99.90;;;;;;4971542;28;20085;-66
2023/09/23 05:12:10;;;;;;;0.10;0.10;;;12.30;99.90;;;;;;4970654;28;20097;-66
2023/09/23 05:14:35;;;;;;;0.00;0.00;;;12.40;99.90;;;;;;4972232;28;20517;-66
2023/09/23 05:17:04;;;;;;;0.00;0.00;;;12.50;99.90;;;;;;4971796;28;20039;-66
2023/09/23 05:19:33;;;;;;;0.10;0.10;;;12.50;99.90;;;;;;4970923;28;20046;-66
2023/09/23 05:21:59;;;;;;;0.03;0.03;;;12.60;99.90;;;;;;4954603;28;20062;-66
2023/09/23 05:24:28;;;;;;;0.00;0.00;;;12.60;99.90;;;;;;4971554;28;20035;-66
2023/09/23 05:26:55;;;;;;;0.30;0.30;;;12.60;99.90;;;;;;4975350;28;20038;-66
2023/09/23 05:29:24;;;;;;;0.00;0.00;;;12.60;99.90;;;;;;4956591;28;20482;-65
2023/09/23 05:31:49;;;;;;;0.10;0.10;;;12.70;99.90;;;;;;4974885;28;20109;-66
2023/09/23 05:34:16;;;;;;;0.57;0.57;;;12.80;99.90;;;;;;4975737;28;20115;-66
2023/09/23 05:36:42;;;;;;;0.25;0.25;;;12.80;99.90;;;;;;4974155;28;20502;-66
2023/09/23 05:39:08;;;;;;;0.52;0.52;;;12.80;99.90;;;;;;4974677;28;20126;-66
2023/09/23 05:41:33;;;;;;;0.03;0.03;;;12.80;99.90;;;;;;4975214;28;20043;-66
2023/09/23 05:43:59;;;;;;;0.03;0.03;;;12.80;99.90;;;;;;4975376;28;20039;-66
2023/09/23 05:46:27;;;;;;;0.20;0.20;;;12.80;99.90;;;;;;4972962;28;20054;-66
2023/09/23 05:48:53;;;;;;;0.03;0.03;;;12.80;99.90;;;;;;4975667;28;20047;-66
2023/09/23 05:51:19;;;;;;;0.00;0.00;;;12.90;99.90;;;;;;4958508;28;20046;-65
2023/09/23 05:53:45;;;;;;;0.10;0.10;;;12.90;99.90;;;;;;4974787;28;20041;-66
2023/09/23 05:56:11;;;;;;;0.00;0.00;;;12.90;99.90;;;;;;4973871;28;20047;-66
2023/09/23 05:58:37;;;;;;;0.00;0.00;;;13.00;99.90;;;;;;4974650;28;20454;-66
2023/09/23 06:01:03;;;;;;;0.00;0.00;;;13.00;99.90;;;;;;4973749;28;20066;-66
2023/09/23 06:03:29;;;;;;;0.00;0.00;;;13.00;99.90;;;;;;4975194;28;20050;-66
2023/09/23 06:05:55;;;;;;;0.00;0.00;;;13.10;99.90;;;;;;4973150;28;20065;-66
2023/09/23 06:08:21;;;;;;;0.00;0.00;;;13.00;99.90;;;;;;4975286;28;20049;-66
2023/09/23 06:10:47;;;;;;;0.00;0.00;;;13.10;99.90;;;;;;4957754;28;20446;-66
2023/09/23 06:13:12;;;;;;;0.00;0.00;;;13.20;99.90;;;;;;4957313;28;20447;-66
2023/09/23 06:15:38;;;;;;;0.00;0.00;;;13.20;99.90;;;;;;4956126;28;20081;-66
2023/09/23 06:18:06;;;;;;;0.10;0.10;;;13.30;99.90;;;;;;4974775;28;20482;-65
2023/09/23 06:20:33;;;;;;;0.45;0.45;;;13.40;99.90;;;;;;4970876;28;20106;-66
2023/09/23 06:22:58;;;;;;;0.03;0.03;;;13.50;99.90;;;;;;4974493;28;20108;-66
2023/09/23 06:25:24;;;;;;;4.15;0.30;;;13.50;99.90;;;;;;4974691;28;20490;-66
2023/09/23 06:27:50;;;;;;;1.60;1.38;;;13.60;99.90;;;;;;4973566;28;20046;-66
2023/09/23 06:30:15;;;;;;;0.30;0.30;;;13.60;99.90;;;;;;4972686;28;20051;-66
2023/09/23 06:32:42;;;;;;;0.00;0.00;;;13.70;99.90;;;;;;4974748;28;20108;-66
2023/09/23 06:35:09;;;;;;;0.03;0.03;;;13.70;99.90;;;;;;4980618;28;20047;-66
2023/09/23 06:37:35;;;;;;;0.10;0.10;;;13.80;99.90;;;;;;4971998;28;20380;-66
2023/09/23 06:40:01;;;;;;;0.17;0.17;;;13.80;99.90;;;;;;4974285;28;20062;-66
2023/09/23 06:42:26;;;;;;;0.10;0.10;;;13.80;99.90;;;;;;4973613;28;20042;-65
2023/09/23 06:44:52;;;;;;;0.05;0.05;;;13.80;99.90;;;;;;4972772;28;20129;-65
2023/09/23 06:47:17;;;;;;;0.10;0.10;;;13.80;99.90;;;;;;4973726;28;20051;-66
2023/09/23 06:49:43;;;;;;;0.10;0.10;;;13.80;99.90;;;;;;4973731;28;20514;-66
2023/09/23 06:52:09;;;;;;;0.00;0.00;;;13.90;99.90;;;;;;4972802;28;20475;-66
2023/09/23 06:54:34;;;;;;;0.00;0.00;;;13.80;99.90;;;;;;4956743;28;20070;-66
2023/09/23 06:57:00;;;;;;;0.00;0.00;;;13.80;99.90;;;;;;4973269;28;20054;-66
2023/09/23 06:59:25;;;;;;;0.00;0.00;;;13.80;99.90;;;;;;4972209;28;20101;-66
2023/09/23 07:01:51;;;;;;;0.00;0.00;;;13.90;99.90;;;;;;4973888;28;20037;-66
2023/09/23 07:04:17;;;;;;;0.00;0.00;;;13.80;99.90;;;;;;4973210;28;20081;-66
2023/09/23 07:06:43;;;;;;;0.00;0.00;;;13.80;99.90;;;;;;4973853;28;20054;-66
2023/09/23 07:09:08;;;;;;;0.08;0.05;;;13.80;99.90;;;;;;4971770;28;20430;-66
2023/09/23 07:11:34;;;;;;;0.03;0.03;;;13.80;99.90;;;;;;4974072;28;20043;-66
2023/09/23 07:14:00;;;;;;;0.00;0.00;;;13.70;99.90;;;;;;4974120;28;20043;-66
2023/09/23 07:16:26;;;;;;;0.75;0.52;;;13.70;99.90;;;;;;4973577;28;20101;-66
2023/09/23 07:18:52;;;;;;;0.00;0.00;;;13.70;99.90;;;;;;4954653;28;20046;-66
2023/09/23 07:21:19;;;;;;;0.00;0.00;;;13.70;99.90;;;;;;4973951;28;20070;-66
2023/09/23 07:23:44;;;;;;;0.00;0.00;;;13.70;99.90;;;;;;4973110;28;20054;-66
2023/09/23 07:26:17;;;;;;;0.00;0.00;;;13.70;99.90;;;;;;4971401;28;20047;-66
2023/09/23 07:28:43;;;;;;;0.00;0.00;;;13.80;99.90;;;;;;4971707;28;20047;-66
2023/09/23 07:31:12;;;;;;;0.38;0.38;;;13.80;99.90;;;;;;4955485;28;20390;-66
2023/09/23 07:33:38;;;;;;;0.22;0.22;;;13.80;99.90;;;;;;4971790;28;20057;-66
2023/09/23 07:36:11;;;;;;;0.00;0.00;;;13.80;99.90;;;;;;4973117;28;20035;-66
2023/09/23 07:38:36;;;;;;;0.00;0.00;;;13.90;99.90;;;;;;4972831;28;20082;-66
2023/09/23 07:41:03;;;;;;;0.10;0.10;;;13.90;99.90;;;;;;4973165;28;20127;-65
2023/09/23 07:43:28;;;;;;;0.20;0.20;;;13.90;99.90;;;;;;4971329;28;20439;-66
2023/09/23 07:45:54;;;;;;;0.00;0.00;;;14.00;99.90;;;;;;4972714;28;20050;-66
2023/09/23 07:48:20;;;;;;;0.00;0.00;;;14.00;99.90;;;;;;4979670;28;20059;-66
2023/09/23 07:50:46;;;;;;;0.00;0.00;;;14.10;99.90;;;;;;4973292;28;20035;-66
2023/09/23 07:53:11;;;;;;;0.05;0.05;;;14.20;99.90;;;;;;4970900;28;20110;-66
2023/09/23 07:55:37;;;;;;;0.45;0.45;;;14.20;99.90;;;;;;4972809;28;20047;-66
2023/09/23 07:58:03;;;;;;;0.00;0.00;;;14.30;99.90;;;;;;4953788;28;20051;-66
2023/09/23 08:00:28;;;;;;;0.08;0.08;;;14.30;99.90;;;;;;4972152;28;20438;-66
2023/09/23 08:02:54;;;;;;;0.00;0.00;;;14.40;99.90;;;;;;4972779;28;20132;-66
2023/09/23 08:05:23;;;;;;;0.10;0.10;;;14.40;99.90;;;;;;4972535;28;20035;-66
2023/09/23 08:07:50;;;;;;;0.10;0.10;;;14.50;99.90;;;;;;4971398;28;20042;-66
2023/09/23 08:10:17;;;;;;;0.00;0.00;;;14.60;99.90;;;;;;4972408;28;20054;-66
2023/09/23 08:12:43;;;;;;;1.10;1.00;;;14.60;99.90;;;;;;4970581;28;20059;-66
2023/09/23 08:15:11;;;;;;;0.00;0.00;;;14.70;99.90;;;;;;4972718;28;20431;-66
2023/09/23 08:17:39;;;;;;;0.10;0.10;;;14.70;99.90;;;;;;4972879;28;20510;-66
2023/09/23 08:20:19;;;;;;;0.10;0.10;;;14.80;99.90;;;;;;4971137;28;20061;-66
2023/09/23 08:22:46;;;;;;;0.22;0.22;;;14.80;99.90;;;;;;4972695;28;20057;-66
2023/09/23 08:25:15;;;;;;;0.20;0.20;;;14.90;99.90;;;;;;4972817;28;20057;-66
2023/09/23 08:27:42;;;;;;;0.00;0.00;;;15.10;99.90;;;;;;4971393;28;20061;-66
2023/09/23 08:30:10;;;;;;;0.05;0.05;;;15.10;99.90;;;;;;4972585;28;20043;-65
2023/09/23 08:32:39;;;;;;;0.20;0.20;;;15.30;99.90;;;;;;4972914;28;20043;-66
2023/09/23 08:35:07;;;;;;;0.00;0.00;;;15.60;99.90;;;;;;4970412;28;20380;-66
2023/09/23 08:37:33;;;;;;;0.05;0.05;;;15.90;99.90;;;;;;4972329;28;20046;-66
2023/09/23 08:39:58;;;;;;;0.00;0.00;;;15.80;99.90;;;;;;4972872;28;20042;-66
2023/09/23 08:42:25;;;;;;;0.00;0.00;;;16.30;99.90;;;;;;4971849;28;20438;-66
2023/09/23 08:44:51;;;;;;;0.00;0.00;;;17.20;99.90;;;;;;4970584;28;20053;-66
2023/09/23 08:47:20;;;;;;;0.00;0.00;;;17.80;99.90;;;;;;4972185;28;20054;-66
2023/09/23 08:49:50;;;;;;;0.00;0.00;;;18.20;99.90;;;;;;4971898;28;20436;-66
2023/09/23 08:52:19;;;;;;;0.00;0.00;;;18.20;99.90;;;;;;4970950;28;20081;-66
2023/09/23 08:54:48;;;;;;;0.28;0.28;;;18.60;99.90;;;;;;4971385;28;20125;-66
2023/09/23 08:57:16;;;;;;;0.03;0.03;;;19.00;99.90;;;;;;4972549;28;20046;-66
2023/09/23 08:59:41;;;;;;;0.00;0.00;;;19.30;99.90;;;;;;4970694;28;20584;-66
2023/09/23 09:02:07;;;;;;;0.10;0.10;;;19.10;99.90;;;;;;4975097;28;20035;-66
2023/09/23 09:04:33;;;;;;;0.00;0.00;;;18.80;99.90;;;;;;4975892;28;20074;-66
2023/09/23 09:06:59;;;;;;;0.00;0.00;;;18.30;99.90;;;;;;4974431;28;20120;-66
2023/09/23 09:09:25;;;;;;;0.00;0.00;;;18.00;99.90;;;;;;4975659;28;20057;-66
2023/09/23 09:11:53;;;;;;;0.00;0.00;;;17.70;99.90;;;;;;4974078;28;20142;-66
2023/09/23 09:14:20;;;;;;;0.00;0.00;;;17.70;99.90;;;;;;4976291;28;20047;-66
2023/09/23 09:16:45;;;;;;;0.00;0.00;;;17.60;99.90;;;;;;4975001;28;20523;-67
2023/09/23 09:19:11;;;;;;;0.00;0.00;;;17.90;99.90;;;;;;4974398;28;20083;-66
2023/09/23 09:21:37;;;;;;;0.00;0.00;;;17.90;99.90;;;;;;4975376;28;20081;-66
2023/09/23 09:24:04;;;;;;;0.00;0.00;;;18.50;99.90;;;;;;4975018;28;20057;-66
2023/09/23 09:26:30;;;;;;;0.00;0.00;;;18.30;99.90;;;;;;4982588;28;20552;-66
2023/09/23 09:28:56;;;;;;;0.00;0.00;;;18.40;99.90;;;;;;4974223;28;20125;-66
2023/09/23 09:31:24;;;;;;;0.00;0.00;;;19.10;99.90;;;;;;4974701;28;20074;-66
2023/09/23 09:33:53;;;;;;;0.00;0.00;;;19.70;99.90;;;;;;4973974;28;20403;-66
2023/09/23 09:36:23;;;;;;;0.55;0.22;;;19.90;99.90;;;;;;4958150;28;20047;-66
2023/09/23 09:38:54;;;;;;;0.20;0.20;;;20.30;99.90;;;;;;4974910;28;20046;-66
2023/09/23 09:41:35;;;;;;;0.10;0.10;;;20.70;99.90;;;;;;4973764;28;20050;-66
2023/09/23 09:44:02;;;;;;;0.00;0.00;;;20.90;99.90;;;;;;4970461;28;20212;-66
2023/09/23 09:46:30;;;;;;;0.00;0.00;;;20.80;99.90;;;;;;4975021;28;20055;-66
2023/09/23 09:48:59;;;;;;;0.00;0.00;;;20.70;99.90;;;;;;4973555;28;20039;-66
2023/09/23 09:51:25;;;;;;;0.00;0.00;;;20.10;99.90;;;;;;4974595;28;20079;-66
2023/09/23 09:53:51;;;;;;;0.00;0.00;;;19.90;99.90;;;;;;4973646;28;20435;-66
2023/09/23 09:56:19;;;;;;;0.10;0.10;;;19.50;99.90;;;;;;4957754;28;20166;-66
2023/09/23 09:58:48;;;;;;;0.10;0.10;;;19.00;99.90;;;;;;4956931;28;20481;-66
2023/09/23 10:01:13;;;;;;;0.00;0.00;;;18.70;99.90;;;;;;4973298;28;20049;-66
2023/09/23 10:03:42;;;;;;;0.00;0.00;;;18.40;99.90;;;;;;4957669;28;20047;-66
2023/09/23 10:06:08;;;;;;;0.00;0.00;;;18.30;99.90;;;;;;4972765;28;20664;-66
2023/09/23 10:08:38;;;;;;;0.00;0.00;;;18.20;99.90;;;;;;4974836;28;20511;-66
2023/09/23 10:11:08;;;;;;;0.00;0.00;;;18.00;99.90;;;;;;4967551;28;20035;-66
2023/09/23 10:13:35;;;;;;;0.00;0.00;;;18.00;99.90;;;;;;4973126;28;20051;-66
2023/09/23 10:16:11;;;;;;;0.15;0.10;;;18.20;99.90;;;;;;4972952;28;20422;-66
2023/09/23 10:18:39;;;;;;;0.00;0.00;;;18.30;99.90;;;;;;4956061;28;20046;-66
2023/09/23 10:21:06;;;;;;;0.00;0.00;;;18.30;99.90;;;;;;4956034;28;20549;-66
2023/09/23 10:23:36;;;;;;;0.00;0.00;;;18.00;99.90;;;;;;4973054;28;20146;-66
2023/09/23 10:26:25;;;;;;;0.00;0.00;;;17.90;99.90;;;;;;4972310;28;20042;-66
2023/09/23 10:29:04;;;;;;;0.00;0.00;;;17.60;99.90;;;;;;4974470;28;20042;-66
2023/09/23 10:31:32;;;;;;;0.00;0.00;;;17.50;99.90;;;;;;4967573;28;20113;-66
2023/09/23 10:34:05;;;;;;;0.30;0.30;;;17.30;99.90;;;;;;4974311;28;20046;-66
2023/09/23 10:36:30;;;;;;;0.00;0.00;;;17.20;99.90;;;;;;4973571;28;20054;-66
2023/09/23 10:38:57;;;;;;;0.00;0.00;;;17.20;99.90;;;;;;4956950;28;20054;-66
2023/09/23 10:41:34;;;;;;;0.00;0.00;;;17.20;99.90;;;;;;4971994;28;20078;-66
2023/09/23 10:44:04;;;;;;;0.00;0.00;;;17.20;99.90;;;;;;4974332;28;20093;-66
2023/09/23 10:46:32;;;;;;;0.00;0.00;;;17.20;99.90;;;;;;4973821;28;20491;-66
2023/09/23 10:48:59;;;;;;;0.00;0.00;;;17.30;99.90;;;;;;4954610;28;20047;-66
2023/09/23 10:51:25;;;;;;;0.05;0.05;;;17.30;99.90;;;;;;4974155;28;20121;-66
2023/09/23 10:53:51;;;;;;;0.30;0.10;;;17.30;99.90;;;;;;4974263;28;20057;-66
2023/09/23 10:56:21;;;;;;;0.00;0.00;;;17.30;99.90;;;;;;4971812;28;20046;-66
2023/09/23 10:58:47;;;;;;;0.00;0.00;;;17.20;99.90;;;;;;4964347;28;20056;-66
2023/09/23 11:01:12;;;;;;;0.20;0.20;;;17.10;99.90;;;;;;4956013;28;20042;-66
2023/09/23 11:03:42;;;;;;;0.00;0.00;;;17.20;99.90;;;;;;4972336;28;20109;-66
2023/09/23 11:06:08;;;;;;;0.00;0.00;;;17.60;99.90;;;;;;4967700;28;20043;-66
2023/09/23 11:08:36;;;;;;;0.00;0.00;;;17.80;99.90;;;;;;4973287;28;20049;-66
2023/09/23 11:11:02;;;;;;;0.00;0.00;;;18.00;99.90;;;;;;4954786;28;20098;-66
2023/09/23 11:13:28;;;;;;;0.00;0.00;;;18.20;99.90;;;;;;4972018;28;20058;-66
2023/09/23 11:15:53;;;;;;;0.10;0.10;;;18.50;99.90;;;;;;4972523;28;20126;-66
2023/09/23 11:18:19;;;;;;;0.10;0.10;;;18.50;99.90;;;;;;4973616;28;20058;-66
2023/09/23 11:20:46;;;;;;;0.00;0.00;;;18.80;99.90;;;;;;4972388;28;20074;-66
2023/09/23 11:23:12;;;;;;;0.05;0.05;;;18.90;99.90;;;;;;4960009;28;20097;-66
2023/09/23 11:25:44;;;;;;;0.30;0.30;;;19.00;99.90;;;;;;4973336;28;20487;-66
2023/09/23 11:28:21;;;;;;;0.00;0.00;;;19.10;99.90;;;;;;4971725;28;20399;-66
2023/09/23 11:30:48;;;;;;;0.00;0.00;;;19.30;99.90;;;;;;4972743;28;20093;-66
2023/09/23 11:33:14;;;;;;;0.00;0.00;;;19.50;99.90;;;;;;4973119;28;20062;-66
2023/09/23 11:35:43;;;;;;;0.00;0.00;;;19.50;99.90;;;;;;4954752;28;20105;-66
2023/09/23 11:38:10;;;;;;;0.00;0.00;;;19.80;99.90;;;;;;4972282;28;20041;-66
2023/09/23 11:40:36;;;;;;;0.00;0.00;;;20.00;99.90;;;;;;4955927;28;20046;-66
2023/09/23 11:43:03;;;;;;;0.00;0.00;;;20.10;99.90;;;;;;4973143;28;20402;-66
2023/09/23 11:45:29;;;;;;;0.00;0.00;;;20.20;99.90;;;;;;4970982;28;20051;-66
2023/09/23 11:47:56;;;;;;;0.00;0.00;;;20.20;99.90;;;;;;4955526;28;20054;-66
2023/09/23 11:50:23;;;;;;;0.00;0.00;;;20.20;99.90;;;;;;4972372;28;20096;-66
2023/09/23 11:52:48;;;;;;;0.00;0.00;;;20.30;99.90;;;;;;4971501;28;20388;-66
2023/09/23 11:55:14;;;;;;;0.10;0.10;;;20.20;99.90;;;;;;4973266;28;20149;-66
2023/09/23 11:57:40;;;;;;;0.05;0.05;;;20.40;99.90;;;;;;4953287;28;20051;-66
2023/09/23 12:00:09;;;;;;;0.00;0.00;;;20.40;99.90;;;;;;4955543;28;20403;-66
2023/09/23 12:02:40;;;;;;;0.00;0.00;;;20.40;99.90;;;;;;4973067;28;20101;-66
2023/09/23 12:05:07;;;;;;;0.00;0.00;;;20.60;99.90;;;;;;4971144;28;20043;-66
2023/09/23 12:07:33;;;;;;;0.00;0.00;;;20.70;99.90;;;;;;4955793;28;20407;-66
2023/09/23 12:10:00;;;;;;;0.25;0.25;;;20.90;99.90;;;;;;4970646;28;20471;-66
2023/09/23 12:12:26;;;;;;;0.00;0.00;;;21.10;99.90;;;;;;4972424;28;20066;-66
2023/09/23 12:14:53;;;;;;;0.00;0.00;;;21.20;99.90;;;;;;4972948;28;20038;-66
2023/09/23 12:17:18;;;;;;;0.00;0.00;;;21.40;99.90;;;;;;4970931;28;20090;-66
2023/09/23 12:19:44;;;;;;;0.47;0.35;;;21.40;99.90;;;;;;4972101;28;20101;-66
2023/09/23 12:22:12;;;;;;;0.00;0.00;;;21.50;99.90;;;;;;4972655;28;20050;-66
2023/09/23 12:24:40;;;;;;;0.00;0.00;;;21.80;99.90;;;;;;4975092;28;20066;-66
2023/09/23 12:27:06;;;;;;;0.32;0.32;;;22.20;99.90;;;;;;4971822;28;20054;-66
2023/09/23 12:29:31;;;;;;;0.03;0.03;;;22.50;99.90;;;;;;4970767;28;20422;-66
2023/09/23 12:31:57;;;;;;;0.35;0.35;;;22.30;99.90;;;;;;4970845;28;20170;-66
2023/09/23 12:34:23;;;;;;;0.00;0.00;;;22.00;99.90;;;;;;4954394;28;20043;-66
2023/09/23 12:36:49;;;;;;;0.00;0.00;;;21.60;99.90;;;;;;4975951;28;20046;-66
2023/09/23 12:39:16;;;;;;;0.00;0.00;;;21.80;99.90;;;;;;4976522;28;20502;-66
2023/09/23 12:41:42;;;;;;;0.32;0.32;;;22.20;99.90;;;;;;4957009;28;20472;-66
2023/09/23 12:44:08;;;;;;;0.00;0.00;;;22.40;99.90;;;;;;4976221;28;20050;-66
2023/09/23 12:46:33;;;;;;;0.95;0.52;;;21.70;99.90;;;;;;4976193;28;20406;-66